createdAt,value
2018-07-27T00:02:21.089Z,21.80
2018-07-27T00:05:02.469Z,18.90
2018-07-27T00:07:43.832Z,19.93
2018-07-27T00:10:26.347Z,19.53
2018-07-27T00:13:07.785Z,17.10
2018-07-27T00:15:49.078Z,16.57
2018-07-27T00:18:31.305Z,18.03
2018-07-27T00:21:13.526Z,16.93
2018-07-27T00:23:56.121Z,20.57
2018-07-27T00:26:38.304Z,23.97
2018-07-27T00:29:21.337Z,29.37
2018-07-27T00:32:05.965Z,18.27
2018-07-27T00:34:47.457Z,22.77
2018-07-27T00:37:28.941Z,20.83
2018-07-27T00:40:10.364Z,16.80
2018-07-27T00:42:52.670Z,17.87
2018-07-27T00:45:34.181Z,19.47
2018-07-27T00:48:15.622Z,21.43
2018-07-27T00:50:57.191Z,23.90
2018-07-27T00:53:38.577Z,21.03
2018-07-27T00:56:21.113Z,22.23
2018-07-27T00:59:02.342Z,23.83
2018-07-27T01:01:43.712Z,24.70
2018-07-27T01:04:27.056Z,27.43
2018-07-27T01:07:08.544Z,29.50
2018-07-27T01:09:51.268Z,26.43
2018-07-27T01:12:33.093Z,19.63
2018-07-27T01:15:15.059Z,18.57
2018-07-27T01:17:56.641Z,21.43
2018-07-27T01:20:39.693Z,24.70
2018-07-27T01:23:22.072Z,20.73
2018-07-27T01:26:04.205Z,22.43
2018-07-27T01:28:46.151Z,20.97
2018-07-27T01:31:27.849Z,23.87
2018-07-27T01:34:10.246Z,22.63
2018-07-27T01:36:52.699Z,18.17
2018-07-27T01:39:34.096Z,19.00
2018-07-27T01:42:15.462Z,21.60
2018-07-27T01:44:56.990Z,23.50
2018-07-27T01:47:38.327Z,22.20
2018-07-27T01:50:19.770Z,29.90
2018-07-27T01:53:01.163Z,27.47
2018-07-27T01:55:42.605Z,27.40
2018-07-27T01:58:24.763Z,43.07
2018-07-27T02:04:16.514Z,30.53
2018-07-27T02:06:58.899Z,37.27
2018-07-27T02:09:40.578Z,37.53
2018-07-27T02:12:23.266Z,29.27
2018-07-27T02:15:06.261Z,22.50
2018-07-27T02:17:47.766Z,17.87
2018-07-27T02:20:29.628Z,24.03
2018-07-27T02:23:11.048Z,22.70
2018-07-27T02:25:53.619Z,24.63
2018-07-27T02:28:35.111Z,18.10
2018-07-27T02:31:16.373Z,24.27
2018-07-27T02:33:58.004Z,20.87
2018-07-27T02:36:39.475Z,19.60
2018-07-27T02:39:20.857Z,19.30
2018-07-27T02:42:02.041Z,24.07
2018-07-27T02:44:43.334Z,24.87
2018-07-27T02:47:26.160Z,23.93
2018-07-27T02:50:07.711Z,25.67
2018-07-27T02:52:49.292Z,28.27
2018-07-27T02:55:30.608Z,32.07
2018-07-27T02:58:11.810Z,28.73
2018-07-27T03:00:54.079Z,29.07
2018-07-27T03:03:35.480Z,39.63
2018-07-27T03:06:17.052Z,34.40
2018-07-27T03:08:58.528Z,32.00
2018-07-27T03:11:40.552Z,28.47
2018-07-27T03:14:22.352Z,31.60
2018-07-27T03:17:03.769Z,28.60
2018-07-27T03:19:45.469Z,26.83
2018-07-27T03:22:27.479Z,29.37
2018-07-27T03:25:09.013Z,30.80
2018-07-27T03:27:50.672Z,32.43
2018-07-27T03:30:32.097Z,33.60
2018-07-27T03:33:13.461Z,34.90
2018-07-27T03:35:55.057Z,36.03
2018-07-27T03:38:41.650Z,32.83
2018-07-27T03:41:24.134Z,36.80
2018-07-27T03:44:05.508Z,40.23
2018-07-27T03:46:47.025Z,42.63
2018-07-27T03:49:28.489Z,39.63
2018-07-27T03:52:09.843Z,36.60
2018-07-27T03:54:52.279Z,38.87
2018-07-27T03:57:33.717Z,37.10
2018-07-27T04:00:15.080Z,48.27
2018-07-27T04:02:57.357Z,38.27
2018-07-27T04:05:38.799Z,39.60
2018-07-27T04:08:20.089Z,38.37
2018-07-27T04:11:01.950Z,38.43
2018-07-27T04:13:43.395Z,42.67
2018-07-27T04:16:25.212Z,37.73
2018-07-27T04:19:06.575Z,40.27
2018-07-27T04:21:47.954Z,46.50
2018-07-27T04:24:29.899Z,46.73
2018-07-27T04:27:11.240Z,42.97
2018-07-27T04:29:53.407Z,41.70
2018-07-27T04:32:34.934Z,39.73
2018-07-27T04:35:16.262Z,40.73
2018-07-27T04:37:58.103Z,36.73
2018-07-27T04:40:39.366Z,66.50
2018-07-27T04:43:20.779Z,35.97
2018-07-27T04:46:02.401Z,37.93
2018-07-27T04:48:43.751Z,29.93
2018-07-27T04:51:26.372Z,30.87
2018-07-27T04:54:07.877Z,27.67
2018-07-27T04:56:49.649Z,28.27
2018-07-27T04:59:32.668Z,28.80
2018-07-27T05:02:14.228Z,30.43
2018-07-27T05:04:56.237Z,27.00
2018-07-27T05:07:39.191Z,25.13
2018-07-27T05:10:27.416Z,26.97
2018-07-27T05:13:09.115Z,27.37
2018-07-27T05:15:50.704Z,24.27
2018-07-27T05:18:32.276Z,21.97
2018-07-27T05:21:13.691Z,23.23
2018-07-27T05:23:56.352Z,24.33
2018-07-27T05:26:37.743Z,21.30
2018-07-27T05:29:19.224Z,18.93
2018-07-27T05:32:00.543Z,17.00
2018-07-27T05:34:41.968Z,18.53
2018-07-27T05:37:25.421Z,17.27
2018-07-27T05:40:07.912Z,17.73
2018-07-27T05:42:49.324Z,20.27
2018-07-27T05:45:31.008Z,21.50
2018-07-27T05:48:12.458Z,19.90
2018-07-27T05:50:55.400Z,21.23
2018-07-27T05:53:36.924Z,21.60
2018-07-27T05:56:18.249Z,21.17
2018-07-27T05:58:59.545Z,19.87
2018-07-27T06:01:41.356Z,21.60
2018-07-27T06:04:23.828Z,22.80
2018-07-27T06:07:05.115Z,19.17
2018-07-27T06:09:48.055Z,20.53
2018-07-27T06:12:29.771Z,20.57
2018-07-27T06:15:11.162Z,21.33
2018-07-27T06:17:53.566Z,18.70
2018-07-27T06:20:35.797Z,21.23
2018-07-27T06:23:23.208Z,21.87
2018-07-27T06:26:05.137Z,21.70
2018-07-27T06:28:46.435Z,24.67
2018-07-27T06:31:28.336Z,19.80
2018-07-27T06:34:09.632Z,19.33
2018-07-27T06:36:51.085Z,21.77
2018-07-27T06:39:32.625Z,20.23
2018-07-27T06:42:14.280Z,20.60
2018-07-27T06:44:56.483Z,21.93
2018-07-27T06:47:37.776Z,20.93
2018-07-27T06:50:19.367Z,26.80
2018-07-27T06:53:00.755Z,25.10
2018-07-27T06:55:42.164Z,23.17
2018-07-27T06:58:25.662Z,22.53
2018-07-27T07:01:07.017Z,21.17
2018-07-27T07:03:48.612Z,21.50
2018-07-27T07:06:29.988Z,22.87
2018-07-27T07:09:12.431Z,21.57
2018-07-27T07:11:55.554Z,22.53
2018-07-27T07:14:36.835Z,22.63
2018-07-27T07:17:18.106Z,24.03
2018-07-27T07:19:59.414Z,21.93
2018-07-27T07:22:40.711Z,20.10
2018-07-27T07:25:22.709Z,19.43
2018-07-27T07:28:04.085Z,19.73
2018-07-27T07:30:45.556Z,19.00
2018-07-27T07:33:27.872Z,17.83
2018-07-27T07:36:09.394Z,19.03
2018-07-27T07:38:51.010Z,19.13
2018-07-27T07:41:32.561Z,17.57
2018-07-27T07:44:13.928Z,16.87
2018-07-27T07:46:56.790Z,18.53
2018-07-27T07:49:38.196Z,17.13
2018-07-27T07:52:19.682Z,18.03
2018-07-27T07:55:01.095Z,18.93
2018-07-27T07:57:42.458Z,17.87
2018-07-27T08:00:25.903Z,21.13
2018-07-27T08:03:07.436Z,19.07
2018-07-27T08:05:48.816Z,15.13
2018-07-27T08:08:30.177Z,14.13
2018-07-27T08:11:11.591Z,14.00
2018-07-27T08:13:56.911Z,14.67
2018-07-27T08:16:42.346Z,9.70
2018-07-27T08:19:24.578Z,10.17
2018-07-27T08:22:05.856Z,9.80
2018-07-27T08:24:54.872Z,10.10
2018-07-27T08:27:36.215Z,11.90
2018-07-27T08:30:17.575Z,10.83
2018-07-27T08:32:59.320Z,11.07
2018-07-27T08:35:40.807Z,12.03
2018-07-27T08:38:23.232Z,11.10
2018-07-27T08:41:05.828Z,12.43
2018-07-27T08:43:47.589Z,11.50
2018-07-27T08:46:29.038Z,10.60
2018-07-27T08:49:11.391Z,14.40
2018-07-27T08:51:54.459Z,11.90
2018-07-27T08:54:36.146Z,10.93
2018-07-27T08:57:17.529Z,12.13
2018-07-27T08:59:58.996Z,9.77
2018-07-27T09:02:40.377Z,10.63
2018-07-27T09:05:21.567Z,13.03
2018-07-27T09:08:03.938Z,11.53
2018-07-27T09:10:45.458Z,10.50
2018-07-27T09:13:27.441Z,13.50
2018-07-27T09:16:09.177Z,10.30
2018-07-27T09:18:51.154Z,10.13
2018-07-27T09:21:32.600Z,11.37
2018-07-27T09:24:14.010Z,12.67
2018-07-27T09:26:56.150Z,19.33
2018-07-27T09:29:37.529Z,16.20
2018-07-27T09:32:18.925Z,13.80
2018-07-27T09:35:00.358Z,12.20
2018-07-27T09:37:41.819Z,13.33
2018-07-27T09:40:24.316Z,13.80
2018-07-27T09:43:05.853Z,13.17
2018-07-27T09:45:47.122Z,18.53
2018-07-27T09:48:29.092Z,13.53
2018-07-27T09:51:10.616Z,13.30
2018-07-27T09:53:53.040Z,13.80
2018-07-27T09:56:34.384Z,12.73
2018-07-27T09:59:16.335Z,14.87
2018-07-27T10:01:58.742Z,13.83
2018-07-27T10:04:40.082Z,13.17
2018-07-27T10:07:21.348Z,10.00
2018-07-27T10:10:03.020Z,10.03
2018-07-27T10:12:44.399Z,9.83
2018-07-27T10:15:27.204Z,9.80
2018-07-27T10:18:08.534Z,10.23
2018-07-27T10:20:50.114Z,11.37
2018-07-27T10:23:32.537Z,9.90
2018-07-27T10:26:13.998Z,9.87
2018-07-27T10:28:57.001Z,12.53
2018-07-27T10:31:38.292Z,9.60
2018-07-27T10:34:19.645Z,10.50
2018-07-27T10:37:01.398Z,10.57
2018-07-27T10:39:42.865Z,10.60
2018-07-27T10:42:25.894Z,11.40
2018-07-27T10:45:07.553Z,9.43
2018-07-27T10:47:48.967Z,9.33
2018-07-27T10:50:30.449Z,10.93
2018-07-27T10:53:11.895Z,9.47
2018-07-27T10:55:54.533Z,10.67
2018-07-27T10:58:35.972Z,11.17
2018-07-27T11:01:17.348Z,11.93
2018-07-27T11:03:58.889Z,11.97
2018-07-27T11:06:40.340Z,9.87
2018-07-27T11:09:21.733Z,10.50
2018-07-27T11:12:03.599Z,10.40
2018-07-27T11:14:45.078Z,10.17
2018-07-27T11:17:27.548Z,9.17
2018-07-27T11:20:09.875Z,12.93
2018-07-27T11:22:51.461Z,10.47
2018-07-27T11:25:33.369Z,9.40
2018-07-27T11:28:14.973Z,10.60
2018-07-27T11:30:57.772Z,9.03
2018-07-27T11:33:39.653Z,9.97
2018-07-27T11:36:20.998Z,8.80
2018-07-27T11:39:02.866Z,9.17
2018-07-27T11:41:44.126Z,9.93
2018-07-27T11:44:25.839Z,10.23
2018-07-27T11:47:07.508Z,9.77
2018-07-27T11:49:48.896Z,11.63
2018-07-27T11:52:29.993Z,11.47
2018-07-27T11:55:11.264Z,12.60
2018-07-27T11:57:54.079Z,9.20
2018-07-27T12:00:35.608Z,10.93
2018-07-27T12:03:17.099Z,9.33
2018-07-27T12:05:58.785Z,17.93
2018-07-27T12:08:40.303Z,9.57
2018-07-27T12:11:21.455Z,9.57
2018-07-27T12:14:02.957Z,10.70
2018-07-27T12:16:44.294Z,9.20
2018-07-27T12:19:27.138Z,9.90
2018-07-27T12:22:08.664Z,10.80
2018-07-27T12:24:50.901Z,10.17
2018-07-27T12:27:32.904Z,10.47
2018-07-27T12:30:14.210Z,12.50
2018-07-27T12:32:56.961Z,9.93
2018-07-27T12:35:38.436Z,9.80
2018-07-27T12:38:19.949Z,10.30
2018-07-27T12:41:01.244Z,10.60
2018-07-27T12:43:42.642Z,9.33
2018-07-27T12:46:26.104Z,9.83
2018-07-27T12:49:07.667Z,10.03
2018-07-27T12:51:48.936Z,10.87
2018-07-27T12:54:31.105Z,11.07
2018-07-27T12:57:16.910Z,11.17
2018-07-27T13:00:00.050Z,10.33
2018-07-27T13:02:41.848Z,10.67
2018-07-27T13:05:24.569Z,9.20
2018-07-27T13:08:06.194Z,13.73
2018-07-27T13:10:47.531Z,10.00
2018-07-27T13:13:29.080Z,10.10
2018-07-27T13:16:11.928Z,11.73
2018-07-27T13:18:53.991Z,9.77
2018-07-27T13:21:35.653Z,9.93
2018-07-27T13:24:16.991Z,10.57
2018-07-27T13:26:58.911Z,10.80
2018-07-27T13:29:40.644Z,11.67
2018-07-27T13:32:22.775Z,15.87
2018-07-27T13:35:04.184Z,11.80
2018-07-27T13:37:45.813Z,13.67
2018-07-27T13:40:28.101Z,10.17
2018-07-27T13:43:09.594Z,14.93
2018-07-27T13:45:51.085Z,14.07
2018-07-27T13:48:33.203Z,12.00
2018-07-27T13:51:14.809Z,13.33
2018-07-27T13:53:57.701Z,9.23
2018-07-27T13:56:39.190Z,11.00
2018-07-27T13:59:20.737Z,14.93
2018-07-27T14:02:03.209Z,10.87
2018-07-27T14:04:44.893Z,11.03
2018-07-27T14:07:27.848Z,11.93
2018-07-27T14:10:09.232Z,10.80
2018-07-27T14:12:50.706Z,11.20
2018-07-27T14:15:32.936Z,10.17
2018-07-27T14:18:14.413Z,10.13
2018-07-27T14:20:56.800Z,11.90
2018-07-27T14:23:38.330Z,12.03
2018-07-27T14:26:19.904Z,20.30
2018-07-27T14:29:01.936Z,9.23
2018-07-27T14:31:43.320Z,7.77
2018-07-27T14:34:27.024Z,11.67
2018-07-27T14:37:08.223Z,9.40
2018-07-27T14:39:49.565Z,8.87
2018-07-27T14:42:30.969Z,9.27
2018-07-27T14:45:12.593Z,10.00
2018-07-27T14:47:55.786Z,10.07
2018-07-27T14:50:37.298Z,7.30
2018-07-27T14:53:18.977Z,8.23
2018-07-27T14:56:00.362Z,8.57
2018-07-27T14:58:42.493Z,9.97
2018-07-27T15:01:25.808Z,8.63
2018-07-27T15:04:07.981Z,8.97
2018-07-27T15:06:49.357Z,11.30
2018-07-27T15:09:30.717Z,7.40
2018-07-27T15:12:12.045Z,6.27
2018-07-27T15:14:54.472Z,6.63
2018-07-27T15:17:36.956Z,7.47
2018-07-27T15:20:18.255Z,8.63
2018-07-27T15:22:59.569Z,9.20
2018-07-27T15:25:40.873Z,6.83
2018-07-27T15:28:23.807Z,6.43
2018-07-27T15:31:07.270Z,12.73
2018-07-27T15:33:48.832Z,5.50
2018-07-27T15:36:30.400Z,6.57
2018-07-27T15:39:11.728Z,6.87
2018-07-27T15:41:54.555Z,6.80
2018-07-27T15:44:36.028Z,8.47
2018-07-27T15:47:17.598Z,7.23
2018-07-27T15:49:59.477Z,11.03
2018-07-27T15:53:01.296Z,8.40
2018-07-27T15:55:45.255Z,8.03
2018-07-27T15:58:28.140Z,8.30
2018-07-27T16:01:09.692Z,6.90
2018-07-27T16:03:51.229Z,9.97
2018-07-27T16:06:32.873Z,9.00
2018-07-27T16:09:14.591Z,8.33
2018-07-27T16:11:57.011Z,11.13
2018-07-27T16:14:38.425Z,9.03
2018-07-27T16:17:19.971Z,10.03
2018-07-27T16:20:01.477Z,11.83
2018-07-27T16:22:42.894Z,9.23
2018-07-27T16:25:25.903Z,7.40
2018-07-27T16:28:07.420Z,9.43
2018-07-27T16:30:48.927Z,9.03
2018-07-27T16:33:30.264Z,9.43
2018-07-27T16:36:11.636Z,9.27
2018-07-27T16:38:57.240Z,9.53
2018-07-27T16:41:40.357Z,8.33
2018-07-27T16:44:22.157Z,14.03
2018-07-27T16:47:04.187Z,8.97
2018-07-27T16:49:46.166Z,12.43
2018-07-27T16:52:29.174Z,8.03
2018-07-27T16:55:11.209Z,9.70
2018-07-27T16:57:53.846Z,12.03
2018-07-27T17:00:35.423Z,9.63
2018-07-27T17:03:17.175Z,10.97
2018-07-27T17:05:59.360Z,11.77
2018-07-27T17:08:41.079Z,11.10
2018-07-27T17:11:23.888Z,11.43
2018-07-27T17:14:05.681Z,14.67
2018-07-27T17:16:47.105Z,9.70
2018-07-27T17:19:30.047Z,10.80
2018-07-27T17:22:11.378Z,13.17
2018-07-27T17:24:54.170Z,13.87
2018-07-27T17:27:37.164Z,15.30
2018-07-27T17:30:19.034Z,12.53
2018-07-27T17:33:00.650Z,13.03
2018-07-27T17:35:43.037Z,12.03
2018-07-27T17:38:25.459Z,11.57
2018-07-27T17:41:07.344Z,9.80
2018-07-27T17:43:49.167Z,10.80
2018-07-27T17:46:31.403Z,13.93
2018-07-27T17:49:13.082Z,11.77
2018-07-27T17:51:55.506Z,11.87
2018-07-27T17:54:37.123Z,15.53
2018-07-27T17:57:18.656Z,12.20
2018-07-27T18:00:00.197Z,12.03
2018-07-27T18:02:41.616Z,12.57
2018-07-27T18:05:24.493Z,12.23
2018-07-27T18:08:07.062Z,25.83
2018-07-27T18:10:48.504Z,13.77
2018-07-27T18:13:30.585Z,10.77
2018-07-27T18:16:11.899Z,12.23
2018-07-27T18:18:54.557Z,11.00
2018-07-27T18:21:36.295Z,10.73
2018-07-27T18:24:17.963Z,11.90
2018-07-27T18:27:00.819Z,10.70
2018-07-27T18:29:43.523Z,10.67
2018-07-27T18:32:27.734Z,8.93
2018-07-27T18:35:10.320Z,11.40
2018-07-27T18:37:52.235Z,12.53
2018-07-27T18:40:35.597Z,11.80
2018-07-27T18:43:17.202Z,12.90
2018-07-27T18:46:00.324Z,15.17
2018-07-27T18:48:41.851Z,12.53
2018-07-27T18:51:24.667Z,11.17
2018-07-27T18:54:06.656Z,11.67
2018-07-27T18:56:49.314Z,12.27
2018-07-27T18:59:30.957Z,10.53
2018-07-27T19:02:12.966Z,13.07
2018-07-27T19:04:54.728Z,11.57
2018-07-27T19:07:36.241Z,14.70
2018-07-27T19:10:17.947Z,10.53
2018-07-27T19:13:01.326Z,13.73
2018-07-27T19:15:42.857Z,9.63
2018-07-27T19:18:25.655Z,9.70
2018-07-27T19:21:07.407Z,11.13
2018-07-27T19:23:48.691Z,10.70
2018-07-27T19:26:30.303Z,11.03
2018-07-27T19:29:11.858Z,15.33
2018-07-27T19:31:55.025Z,69.93
2018-07-27T19:34:37.290Z,19.73
2018-07-27T19:37:18.762Z,14.17
2018-07-27T19:40:02.276Z,12.73
2018-07-27T19:42:44.090Z,16.73
2018-07-27T19:45:30.037Z,12.27
2018-07-27T19:48:12.277Z,16.17
2018-07-27T19:50:54.769Z,11.27
2018-07-27T19:53:36.256Z,13.17
2018-07-27T19:56:17.815Z,11.30
2018-07-27T19:58:59.973Z,11.33
2018-07-27T20:01:41.225Z,16.87
2018-07-27T20:04:22.672Z,16.20
2018-07-27T20:07:04.353Z,22.13
2018-07-27T20:09:45.783Z,14.40
2018-07-27T20:12:29.511Z,17.27
2018-07-27T20:15:11.005Z,14.70
2018-07-27T20:17:52.767Z,12.47
2018-07-27T20:20:35.385Z,13.30
2018-07-27T20:23:17.674Z,15.80
2018-07-27T20:26:00.392Z,12.83
2018-07-27T20:28:41.967Z,15.00
2018-07-27T20:31:23.784Z,15.03
2018-07-27T20:34:06.432Z,17.07
2018-07-27T20:36:47.773Z,17.63
2018-07-27T20:39:30.614Z,20.17
2018-07-27T20:42:12.328Z,16.07
2018-07-27T20:44:53.940Z,16.53
2018-07-27T20:47:36.141Z,18.67
2018-07-27T20:50:17.531Z,16.30
2018-07-27T20:52:59.268Z,17.27
2018-07-27T20:55:41.070Z,15.63
2018-07-27T20:58:22.457Z,18.90
2018-07-27T21:01:03.848Z,15.93
2018-07-27T21:03:45.366Z,16.97
2018-07-27T21:06:28.425Z,19.80
2018-07-27T21:09:10.656Z,16.00
2018-07-27T21:11:52.026Z,15.37
2018-07-27T21:14:33.580Z,19.90
2018-07-27T21:17:14.946Z,16.80
2018-07-27T21:19:57.228Z,16.10
2018-07-27T21:22:38.800Z,16.00
2018-07-27T21:25:20.371Z,15.83
2018-07-27T21:28:01.699Z,19.10
2018-07-27T21:30:43.524Z,17.30
2018-07-27T21:33:25.833Z,19.53
2018-07-27T21:36:07.429Z,18.17
2018-07-27T21:38:48.949Z,20.07
2018-07-27T21:41:30.729Z,19.73
2018-07-27T21:44:12.165Z,25.63
2018-07-27T21:46:53.635Z,17.93
2018-07-27T21:49:35.243Z,19.83
2018-07-27T21:52:16.637Z,27.10
2018-07-27T21:54:59.868Z,23.07
2018-07-27T21:57:41.559Z,21.70
2018-07-27T22:00:23.089Z,22.40
2018-07-27T22:03:06.219Z,21.60
2018-07-27T22:05:48.106Z,18.00
2018-07-27T22:08:30.309Z,19.23
2018-07-27T22:11:11.805Z,21.87
2018-07-27T22:13:53.308Z,19.57
2018-07-27T22:16:35.696Z,19.60
2018-07-27T22:19:17.167Z,22.43
2018-07-27T22:21:59.488Z,20.63
2018-07-27T22:24:40.942Z,21.60
2018-07-27T22:27:22.628Z,18.90
2018-07-27T22:30:03.897Z,18.40
2018-07-27T22:32:45.096Z,20.73
2018-07-27T22:35:27.300Z,18.77
2018-07-27T22:38:08.958Z,19.60
2018-07-27T22:40:50.563Z,20.67
2018-07-27T22:43:31.892Z,18.40
2018-07-27T22:46:13.778Z,20.43
2018-07-27T22:48:56.639Z,20.00
2018-07-27T22:51:38.192Z,18.37
2018-07-27T22:54:19.641Z,18.57
2018-07-27T22:57:01.375Z,18.23
2018-07-27T22:59:43.184Z,18.70
2018-07-27T23:02:25.803Z,19.17
2018-07-27T23:05:07.322Z,20.83
2018-07-27T23:07:49.065Z,18.93
2018-07-27T23:10:31.426Z,21.37
2018-07-27T23:13:12.781Z,21.97
2018-07-27T23:15:54.096Z,21.23
2018-07-27T23:18:35.628Z,19.83
2018-07-27T23:21:17.015Z,19.87
2018-07-27T23:23:59.469Z,24.17
2018-07-27T23:26:41.072Z,21.70
2018-07-27T23:29:22.429Z,23.10
2018-07-27T23:32:03.810Z,20.60
2018-07-27T23:34:45.196Z,18.80
2018-07-27T23:37:27.214Z,21.77
2018-07-27T23:40:09.017Z,21.63
2018-07-27T23:42:50.470Z,19.97
2018-07-27T23:45:31.835Z,19.90
2018-07-27T23:48:13.371Z,19.03
2018-07-27T23:50:55.556Z,20.47
2018-07-27T23:53:37.747Z,21.13
2018-07-27T23:56:19.141Z,21.90
2018-07-27T23:59:01.545Z,21.27
